sensor_id;sensor_type;location;lat;lon;timestamp;noise_LAeq;noise_LA_min;noise_LA_max;noise_LA01;noise_LA95
66274;Laerm;58450;52.150;4.466;2022-07-24T00:00:08;39.71;33.88;56.91;;
66274;Laerm;58450;52.150;4.466;2022-07-24T00:02:36;39.55;33.71;48.51;;
66274;Laerm;58450;52.150;4.466;2022-07-24T00:05:05;39.85;33.59;49.26;;
66274;Laerm;58450;52.150;4.466;2022-07-24T00:07:34;40.15;33.33;53.29;;
66274;Laerm;58450;52.150;4.466;2022-07-24T00:10:02;39.05;32.77;48.48;;
66274;Laerm;58450;52.150;4.466;2022-07-24T00:12:30;39.63;33.77;48.63;;
66274;Laerm;58450;52.150;4.466;2022-07-24T00:14:58;39.41;33.41;48.17;;
66274;Laerm;58450;52.150;4.466;2022-07-24T00:17:25;39.25;33.34;48.94;;
66274;Laerm;58450;52.150;4.466;2022-07-24T00:19:53;43.19;34.50;55.84;;
66274;Laerm;58450;52.150;4.466;2022-07-24T00:22:20;38.81;32.44;49.10;;
66274;Laerm;58450;52.150;4.466;2022-07-24T00:24:51;39.41;32.88;50.21;;
66274;Laerm;58450;52.150;4.466;2022-07-24T00:27:18;40.32;31.90;49.08;;
66274;Laerm;58450;52.150;4.466;2022-07-24T00:29:46;38.79;33.12;48.96;;
66274;Laerm;58450;52.150;4.466;2022-07-24T00:32:13;41.90;33.22;55.35;;
66274;Laerm;58450;52.150;4.466;2022-07-24T00:34:41;38.62;33.15;48.01;;
66274;Laerm;58450;52.150;4.466;2022-07-24T00:37:08;38.98;33.72;49.01;;
66274;Laerm;58450;52.150;4.466;2022-07-24T00:39:36;38.58;33.25;47.63;;
66274;Laerm;58450;52.150;4.466;2022-07-24T00:42:05;38.76;32.44;49.34;;
66274;Laerm;58450;52.150;4.466;2022-07-24T00:44:33;38.91;33.02;47.82;;
66274;Laerm;58450;52.150;4.466;2022-07-24T00:47:00;39.16;33.58;48.78;;
66274;Laerm;58450;52.150;4.466;2022-07-24T00:49:28;39.13;33.41;48.35;;
66274;Laerm;58450;52.150;4.466;2022-07-24T00:51:56;39.06;33.35;48.31;;
66274;Laerm;58450;52.150;4.466;2022-07-24T00:54:23;39.71;32.92;50.38;;
66274;Laerm;58450;52.150;4.466;2022-07-24T00:56:53;39.13;33.04;48.12;;
66274;Laerm;58450;52.150;4.466;2022-07-24T00:59:22;39.12;32.99;48.65;;
66274;Laerm;58450;52.150;4.466;2022-07-24T01:01:50;39.86;33.85;49.39;;
66274;Laerm;58450;52.150;4.466;2022-07-24T01:04:18;39.45;32.42;49.96;;
66274;Laerm;58450;52.150;4.466;2022-07-24T01:06:47;39.53;33.14;53.69;;
66274;Laerm;58450;52.150;4.466;2022-07-24T01:09:15;39.90;33.03;48.02;;
66274;Laerm;58450;52.150;4.466;2022-07-24T01:11:44;39.44;33.44;51.34;;
66274;Laerm;58450;52.150;4.466;2022-07-24T01:14:11;40.79;32.92;58.06;;
66274;Laerm;58450;52.150;4.466;2022-07-24T01:16:40;38.89;33.09;47.93;;
66274;Laerm;58450;52.150;4.466;2022-07-24T01:19:08;38.54;32.27;50.36;;
66274;Laerm;58450;52.150;4.466;2022-07-24T01:21:37;38.76;32.01;48.50;;
66274;Laerm;58450;52.150;4.466;2022-07-24T01:24:05;38.71;32.17;48.25;;
66274;Laerm;58450;52.150;4.466;2022-07-24T01:26:33;44.10;31.73;59.96;;
66274;Laerm;58450;52.150;4.466;2022-07-24T01:29:00;39.76;32.84;54.91;;
66274;Laerm;58450;52.150;4.466;2022-07-24T01:31:28;43.81;33.30;58.76;;
66274;Laerm;58450;52.150;4.466;2022-07-24T01:33:55;40.15;32.51;54.23;;
66274;Laerm;58450;52.150;4.466;2022-07-24T01:36:23;38.48;32.30;48.00;;
66274;Laerm;58450;52.150;4.466;2022-07-24T01:38:52;38.41;31.61;51.12;;
66274;Laerm;58450;52.150;4.466;2022-07-24T01:41:19;38.68;31.87;49.02;;
66274;Laerm;58450;52.150;4.466;2022-07-24T01:43:47;38.22;32.55;47.57;;
66274;Laerm;58450;52.150;4.466;2022-07-24T01:46:15;38.33;32.25;47.72;;
66274;Laerm;58450;52.150;4.466;2022-07-24T01:48:43;38.14;31.75;48.08;;
66274;Laerm;58450;52.150;4.466;2022-07-24T01:51:11;39.16;32.73;50.69;;
66274;Laerm;58450;52.150;4.466;2022-07-24T01:53:38;38.83;31.81;54.07;;
66274;Laerm;58450;52.150;4.466;2022-07-24T01:56:07;38.11;31.86;47.92;;
66274;Laerm;58450;52.150;4.466;2022-07-24T01:58:35;43.20;32.43;66.10;;
66274;Laerm;58450;52.150;4.466;2022-07-24T02:01:05;42.53;32.21;68.09;;
66274;Laerm;58450;52.150;4.466;2022-07-24T02:03:33;38.88;31.78;49.38;;
66274;Laerm;58450;52.150;4.466;2022-07-24T02:06:00;38.09;31.42;49.07;;
66274;Laerm;58450;52.150;4.466;2022-07-24T02:08:28;37.93;31.77;48.14;;
66274;Laerm;58450;52.150;4.466;2022-07-24T02:10:56;38.85;31.68;48.18;;
66274;Laerm;58450;52.150;4.466;2022-07-24T02:13:24;38.41;32.22;49.23;;
66274;Laerm;58450;52.150;4.466;2022-07-24T02:15:53;39.87;32.34;49.83;;
66274;Laerm;58450;52.150;4.466;2022-07-24T02:18:20;41.33;32.81;52.46;;
66274;Laerm;58450;52.150;4.466;2022-07-24T02:20:48;38.62;32.59;49.32;;
66274;Laerm;58450;52.150;4.466;2022-07-24T02:23:16;38.52;32.26;48.08;;
66274;Laerm;58450;52.150;4.466;2022-07-24T02:25:45;41.01;32.24;56.42;;
66274;Laerm;58450;52.150;4.466;2022-07-24T02:28:14;39.17;32.67;48.12;;
66274;Laerm;58450;52.150;4.466;2022-07-24T02:30:43;38.91;33.15;49.07;;
66274;Laerm;58450;52.150;4.466;2022-07-24T02:33:11;40.88;33.62;56.83;;
66274;Laerm;58450;52.150;4.466;2022-07-24T02:35:39;38.61;32.77;54.74;;
66274;Laerm;58450;52.150;4.466;2022-07-24T02:38:06;39.01;32.80;49.57;;
66274;Laerm;58450;52.150;4.466;2022-07-24T02:40:34;38.26;32.29;47.74;;
66274;Laerm;58450;52.150;4.466;2022-07-24T02:43:02;43.79;32.69;58.40;;
66274;Laerm;58450;52.150;4.466;2022-07-24T02:45:30;39.08;32.83;48.72;;
66274;Laerm;58450;52.150;4.466;2022-07-24T02:47:59;39.59;33.25;54.92;;
66274;Laerm;58450;52.150;4.466;2022-07-24T02:50:32;43.82;32.79;62.65;;
66274;Laerm;58450;52.150;4.466;2022-07-24T02:53:01;40.05;32.46;57.18;;
66274;Laerm;58450;52.150;4.466;2022-07-24T02:55:29;40.44;33.33;56.24;;
66274;Laerm;58450;52.150;4.466;2022-07-24T02:57:57;46.61;33.65;68.38;;
66274;Laerm;58450;52.150;4.466;2022-07-24T03:00:24;40.34;32.96;55.80;;
66274;Laerm;58450;52.150;4.466;2022-07-24T03:02:52;41.12;33.33;59.21;;
66274;Laerm;58450;52.150;4.466;2022-07-24T03:05:21;42.00;33.13;58.14;;
66274;Laerm;58450;52.150;4.466;2022-07-24T03:07:49;45.87;34.07;67.13;;
66274;Laerm;58450;52.150;4.466;2022-07-24T03:10:16;40.38;33.62;51.61;;
66274;Laerm;58450;52.150;4.466;2022-07-24T03:12:44;42.02;34.22;62.41;;
66274;Laerm;58450;52.150;4.466;2022-07-24T03:15:13;40.31;33.46;54.08;;
66274;Laerm;58450;52.150;4.466;2022-07-24T03:17:48;47.62;33.82;68.72;;
66274;Laerm;58450;52.150;4.466;2022-07-24T03:20:17;40.18;33.70;54.66;;
66274;Laerm;58450;52.150;4.466;2022-07-24T03:22:46;44.16;33.90;67.22;;
66274;Laerm;58450;52.150;4.466;2022-07-24T03:25:15;43.03;33.25;63.31;;
66274;Laerm;58450;52.150;4.466;2022-07-24T03:27:42;45.11;33.41;66.40;;
66274;Laerm;58450;52.150;4.466;2022-07-24T03:30:11;46.77;33.83;65.96;;
66274;Laerm;58450;52.150;4.466;2022-07-24T03:32:39;46.31;34.60;66.70;;
66274;Laerm;58450;52.150;4.466;2022-07-24T03:35:08;47.04;34.62;73.14;;
66274;Laerm;58450;52.150;4.466;2022-07-24T03:37:36;48.87;34.04;69.38;;
66274;Laerm;58450;52.150;4.466;2022-07-24T03:40:07;40.90;33.80;52.33;;
66274;Laerm;58450;52.150;4.466;2022-07-24T03:42:34;44.50;34.64;66.57;;
66274;Laerm;58450;52.150;4.466;2022-07-24T03:45:03;51.16;34.24;70.15;;
66274;Laerm;58450;52.150;4.466;2022-07-24T03:47:31;50.97;35.11;71.43;;
66274;Laerm;58450;52.150;4.466;2022-07-24T03:49:58;48.68;33.93;73.24;;
66274;Laerm;58450;52.150;4.466;2022-07-24T03:52:26;40.81;33.38;52.51;;
66274;Laerm;58450;52.150;4.466;2022-07-24T03:54:53;48.10;34.28;64.11;;
66274;Laerm;58450;52.150;4.466;2022-07-24T03:57:23;40.01;33.91;48.97;;
66274;Laerm;58450;52.150;4.466;2022-07-24T03:59:51;43.34;33.70;61.60;;
66274;Laerm;58450;52.150;4.466;2022-07-24T04:02:18;44.47;34.09;62.44;;
66274;Laerm;58450;52.150;4.466;2022-07-24T04:04:45;41.93;34.09;60.99;;
66274;Laerm;58450;52.150;4.466;2022-07-24T04:07:13;40.62;34.48;53.12;;
66274;Laerm;58450;52.150;4.466;2022-07-24T04:09:40;41.71;34.54;61.11;;
66274;Laerm;58450;52.150;4.466;2022-07-24T04:12:08;41.47;34.27;58.62;;
66274;Laerm;58450;52.150;4.466;2022-07-24T04:14:37;40.86;33.58;57.14;;
66274;Laerm;58450;52.150;4.466;2022-07-24T04:17:05;41.68;33.74;53.59;;
66274;Laerm;58450;52.150;4.466;2022-07-24T04:19:32;44.23;33.51;65.36;;
66274;Laerm;58450;52.150;4.466;2022-07-24T04:22:00;43.68;34.75;52.07;;
66274;Laerm;58450;52.150;4.466;2022-07-24T04:24:27;41.05;33.72;54.73;;
66274;Laerm;58450;52.150;4.466;2022-07-24T04:26:55;47.67;35.56;66.30;;
66274;Laerm;58450;52.150;4.466;2022-07-24T04:29:23;41.59;33.50;52.96;;
66274;Laerm;58450;52.150;4.466;2022-07-24T04:31:51;41.90;34.75;55.88;;
66274;Laerm;58450;52.150;4.466;2022-07-24T04:34:19;47.65;35.48;62.70;;
66274;Laerm;58450;52.150;4.466;2022-07-24T04:36:47;42.47;35.16;61.75;;
66274;Laerm;58450;52.150;4.466;2022-07-24T04:39:14;41.46;35.01;52.28;;
66274;Laerm;58450;52.150;4.466;2022-07-24T04:41:42;41.78;34.07;59.93;;
66274;Laerm;58450;52.150;4.466;2022-07-24T04:44:10;41.51;34.26;55.34;;
66274;Laerm;58450;52.150;4.466;2022-07-24T04:46:37;42.19;34.07;57.96;;
66274;Laerm;58450;52.150;4.466;2022-07-24T04:49:06;40.36;34.44;53.64;;
66274;Laerm;58450;52.150;4.466;2022-07-24T04:51:33;40.89;34.15;52.74;;
66274;Laerm;58450;52.150;4.466;2022-07-24T04:54:01;44.73;35.28;70.64;;
66274;Laerm;58450;52.150;4.466;2022-07-24T04:56:28;41.86;34.55;53.83;;
66274;Laerm;58450;52.150;4.466;2022-07-24T04:58:58;48.01;34.61;70.23;;
66274;Laerm;58450;52.150;4.466;2022-07-24T05:01:28;46.53;35.52;69.01;;
66274;Laerm;58450;52.150;4.466;2022-07-24T05:03:55;40.06;34.40;48.54;;
66274;Laerm;58450;52.150;4.466;2022-07-24T05:06:26;41.84;34.25;56.43;;
66274;Laerm;58450;52.150;4.466;2022-07-24T05:08:53;41.84;34.70;53.11;;
66274;Laerm;58450;52.150;4.466;2022-07-24T05:11:21;40.68;34.45;52.80;;
66274;Laerm;58450;52.150;4.466;2022-07-24T05:13:48;47.25;36.05;61.42;;
66274;Laerm;58450;52.150;4.466;2022-07-24T05:16:16;41.23;35.09;55.34;;
66274;Laerm;58450;52.150;4.466;2022-07-24T05:18:44;47.20;35.96;62.15;;
66274;Laerm;58450;52.150;4.466;2022-07-24T05:21:11;42.80;35.46;56.33;;
66274;Laerm;58450;52.150;4.466;2022-07-24T05:23:42;41.79;35.37;52.57;;
66274;Laerm;58450;52.150;4.466;2022-07-24T05:26:10;44.98;35.53;61.55;;
66274;Laerm;58450;52.150;4.466;2022-07-24T05:28:37;41.52;35.25;60.28;;
66274;Laerm;58450;52.150;4.466;2022-07-24T05:31:05;42.76;35.27;58.09;;
66274;Laerm;58450;52.150;4.466;2022-07-24T05:33:34;44.43;35.72;60.85;;
66274;Laerm;58450;52.150;4.466;2022-07-24T05:36:02;42.19;34.65;54.78;;
66274;Laerm;58450;52.150;4.466;2022-07-24T05:38:30;44.22;36.74;56.69;;
66274;Laerm;58450;52.150;4.466;2022-07-24T05:40:58;41.44;35.65;57.49;;
66274;Laerm;58450;52.150;4.466;2022-07-24T05:43:28;46.39;36.40;58.92;;
66274;Laerm;58450;52.150;4.466;2022-07-24T05:45:56;43.76;35.54;67.13;;
66274;Laerm;58450;52.150;4.466;2022-07-24T05:48:23;45.70;35.91;67.24;;
66274;Laerm;58450;52.150;4.466;2022-07-24T05:50:51;45.10;36.72;54.82;;
66274;Laerm;58450;52.150;4.466;2022-07-24T05:53:18;41.77;35.85;53.17;;
66274;Laerm;58450;52.150;4.466;2022-07-24T05:55:46;46.62;36.31;56.07;;
66274;Laerm;58450;52.150;4.466;2022-07-24T05:58:15;47.54;38.65;59.41;;
66274;Laerm;58450;52.150;4.466;2022-07-24T06:00:43;50.23;37.95;59.57;;
66274;Laerm;58450;52.150;4.466;2022-07-24T06:03:11;43.59;37.51;63.99;;
66274;Laerm;58450;52.150;4.466;2022-07-24T06:05:38;45.81;37.53;64.73;;
66274;Laerm;58450;52.150;4.466;2022-07-24T06:08:06;44.84;36.52;69.35;;
66274;Laerm;58450;52.150;4.466;2022-07-24T06:10:34;47.17;37.14;70.42;;
66274;Laerm;58450;52.150;4.466;2022-07-24T06:13:02;48.80;38.38;65.20;;
66274;Laerm;58450;52.150;4.466;2022-07-24T06:15:31;44.01;36.63;64.15;;
66274;Laerm;58450;52.150;4.466;2022-07-24T06:17:58;46.06;36.40;62.83;;
66274;Laerm;58450;52.150;4.466;2022-07-24T06:20:26;42.07;35.87;55.24;;
66274;Laerm;58450;52.150;4.466;2022-07-24T06:22:54;41.99;36.14;51.43;;
66274;Laerm;58450;52.150;4.466;2022-07-24T06:25:21;45.68;37.32;68.32;;
66274;Laerm;58450;52.150;4.466;2022-07-24T06:27:50;41.30;35.78;50.67;;
66274;Laerm;58450;52.150;4.466;2022-07-24T06:30:22;44.81;35.52;62.68;;
66274;Laerm;58450;52.150;4.466;2022-07-24T06:32:54;47.17;36.77;69.02;;
66274;Laerm;58450;52.150;4.466;2022-07-24T06:35:22;44.75;36.94;57.72;;
66274;Laerm;58450;52.150;4.466;2022-07-24T06:37:50;43.98;37.10;61.33;;
66274;Laerm;58450;52.150;4.466;2022-07-24T06:40:18;44.04;36.27;57.73;;
66274;Laerm;58450;52.150;4.466;2022-07-24T06:42:48;50.86;36.96;72.45;;
66274;Laerm;58450;52.150;4.466;2022-07-24T06:45:16;51.22;35.87;74.26;;
66274;Laerm;58450;52.150;4.466;2022-07-24T06:47:43;46.07;36.65;57.05;;
66274;Laerm;58450;52.150;4.466;2022-07-24T06:50:13;44.16;38.04;54.90;;
66274;Laerm;58450;52.150;4.466;2022-07-24T06:52:41;45.36;37.85;64.60;;
66274;Laerm;58450;52.150;4.466;2022-07-24T06:55:09;44.66;36.91;66.42;;
66274;Laerm;58450;52.150;4.466;2022-07-24T06:57:37;42.54;37.20;59.83;;
66274;Laerm;58450;52.150;4.466;2022-07-24T07:00:08;44.71;37.53;58.57;;
66274;Laerm;58450;52.150;4.466;2022-07-24T07:02:36;46.33;39.71;56.33;;
66274;Laerm;58450;52.150;4.466;2022-07-24T07:05:05;44.54;36.79;57.13;;
66274;Laerm;58450;52.150;4.466;2022-07-24T07:07:35;43.65;36.83;59.98;;
66274;Laerm;58450;52.150;4.466;2022-07-24T07:10:04;42.42;36.03;64.39;;
66274;Laerm;58450;52.150;4.466;2022-07-24T07:12:32;46.26;37.88;61.29;;
66274;Laerm;58450;52.150;4.466;2022-07-24T07:15:00;46.23;38.02;62.25;;
66274;Laerm;58450;52.150;4.466;2022-07-24T07:17:27;46.89;35.80;61.88;;
66274;Laerm;58450;52.150;4.466;2022-07-24T07:19:54;46.49;39.75;59.28;;
66274;Laerm;58450;52.150;4.466;2022-07-24T07:22:22;49.59;40.61;62.01;;
66274;Laerm;58450;52.150;4.466;2022-07-24T07:24:51;46.40;38.80;65.58;;
66274;Laerm;58450;52.150;4.466;2022-07-24T07:27:19;49.94;39.78;67.72;;
66274;Laerm;58450;52.150;4.466;2022-07-24T07:29:46;47.42;38.22;67.50;;
66274;Laerm;58450;52.150;4.466;2022-07-24T07:32:14;49.03;38.97;69.94;;
66274;Laerm;58450;52.150;4.466;2022-07-24T07:34:41;49.32;40.61;71.48;;
66274;Laerm;58450;52.150;4.466;2022-07-24T07:37:09;50.70;37.57;70.12;;
66274;Laerm;58450;52.150;4.466;2022-07-24T07:39:36;49.23;37.00;71.33;;
66274;Laerm;58450;52.150;4.466;2022-07-24T07:42:05;45.42;39.00;58.15;;
66274;Laerm;58450;52.150;4.466;2022-07-24T07:44:33;49.97;41.61;67.17;;
66274;Laerm;58450;52.150;4.466;2022-07-24T07:47:00;45.68;39.66;56.14;;
66274;Laerm;58450;52.150;4.466;2022-07-24T07:49:28;50.75;45.44;60.74;;
66274;Laerm;58450;52.150;4.466;2022-07-24T07:51:55;52.94;43.11;64.10;;
66274;Laerm;58450;52.150;4.466;2022-07-24T07:54:23;51.15;41.35;67.64;;
66274;Laerm;58450;52.150;4.466;2022-07-24T07:56:50;49.40;41.45;70.06;;
66274;Laerm;58450;52.150;4.466;2022-07-24T07:59:19;51.58;43.01;66.84;;
66274;Laerm;58450;52.150;4.466;2022-07-24T08:01:47;51.24;45.48;69.64;;
66274;Laerm;58450;52.150;4.466;2022-07-24T08:04:14;53.60;39.98;75.91;;
66274;Laerm;58450;52.150;4.466;2022-07-24T08:06:41;50.68;40.30;75.26;;
66274;Laerm;58450;52.150;4.466;2022-07-24T08:09:09;51.74;42.36;68.26;;
66274;Laerm;58450;52.150;4.466;2022-07-24T08:11:36;48.83;41.01;68.76;;
66274;Laerm;58450;52.150;4.466;2022-07-24T08:14:04;52.07;42.12;62.45;;
66274;Laerm;58450;52.150;4.466;2022-07-24T08:16:33;50.72;41.37;68.06;;
66274;Laerm;58450;52.150;4.466;2022-07-24T08:19:01;51.94;44.64;65.93;;
66274;Laerm;58450;52.150;4.466;2022-07-24T08:21:28;49.07;41.90;64.71;;
66274;Laerm;58450;52.150;4.466;2022-07-24T08:23:57;49.69;42.55;71.41;;
66274;Laerm;58450;52.150;4.466;2022-07-24T08:26:25;50.84;39.96;67.35;;
66274;Laerm;58450;52.150;4.466;2022-07-24T08:28:57;54.27;43.80;79.88;;
66274;Laerm;58450;52.150;4.466;2022-07-24T08:31:25;51.87;45.04;67.03;;
66274;Laerm;58450;52.150;4.466;2022-07-24T08:33:54;48.49;40.95;63.28;;
66274;Laerm;58450;52.150;4.466;2022-07-24T08:36:21;55.38;44.18;68.28;;
66274;Laerm;58450;52.150;4.466;2022-07-24T08:38:49;52.61;45.94;61.55;;
66274;Laerm;58450;52.150;4.466;2022-07-24T08:41:18;49.79;44.53;64.76;;
66274;Laerm;58450;52.150;4.466;2022-07-24T08:43:46;49.30;40.82;58.83;;
66274;Laerm;58450;52.150;4.466;2022-07-24T08:46:15;51.27;41.91;69.79;;
66274;Laerm;58450;52.150;4.466;2022-07-24T08:48:45;48.97;40.94;65.97;;
66274;Laerm;58450;52.150;4.466;2022-07-24T08:51:15;51.49;44.53;66.31;;
66274;Laerm;58450;52.150;4.466;2022-07-24T08:53:43;51.44;43.49;67.86;;
66274;Laerm;58450;52.150;4.466;2022-07-24T08:56:11;50.28;44.05;64.62;;
66274;Laerm;58450;52.150;4.466;2022-07-24T08:58:39;50.06;44.40;63.55;;
66274;Laerm;58450;52.150;4.466;2022-07-24T09:01:08;53.02;47.25;68.60;;
66274;Laerm;58450;52.150;4.466;2022-07-24T09:03:41;53.57;43.53;72.95;;
66274;Laerm;58450;52.150;4.466;2022-07-24T09:06:11;56.02;44.91;80.80;;
66274;Laerm;58450;52.150;4.466;2022-07-24T09:08:41;53.09;43.36;72.21;;
66274;Laerm;58450;52.150;4.466;2022-07-24T09:11:09;51.73;44.79;69.81;;
66274;Laerm;58450;52.150;4.466;2022-07-24T09:13:37;54.01;47.76;66.51;;
66274;Laerm;58450;52.150;4.466;2022-07-24T09:16:24;51.41;44.40;63.08;;
66274;Laerm;58450;52.150;4.466;2022-07-24T09:19:04;52.50;45.79;60.29;;
66274;Laerm;58450;52.150;4.466;2022-07-24T09:21:36;52.23;46.93;58.07;;
66274;Laerm;58450;52.150;4.466;2022-07-24T09:24:15;52.00;47.42;62.26;;
66274;Laerm;58450;52.150;4.466;2022-07-24T09:26:46;53.12;46.62;60.51;;
66274;Laerm;58450;52.150;4.466;2022-07-24T09:29:15;55.69;50.93;66.44;;
66274;Laerm;58450;52.150;4.466;2022-07-24T09:31:55;54.72;48.54;62.84;;
66274;Laerm;58450;52.150;4.466;2022-07-24T09:34:25;53.37;45.40;64.26;;
66274;Laerm;58450;52.150;4.466;2022-07-24T09:36:58;54.50;48.36;59.82;;
66274;Laerm;58450;52.150;4.466;2022-07-24T09:39:30;53.08;48.06;69.15;;
66274;Laerm;58450;52.150;4.466;2022-07-24T09:42:00;54.38;48.20;65.65;;
66274;Laerm;58450;52.150;4.466;2022-07-24T09:44:29;55.26;48.69;64.01;;
66274;Laerm;58450;52.150;4.466;2022-07-24T09:47:01;55.04;49.38;65.74;;
66274;Laerm;58450;52.150;4.466;2022-07-24T09:49:30;54.68;48.91;66.93;;
66274;Laerm;58450;52.150;4.466;2022-07-24T09:52:12;57.07;49.16;62.50;;
66274;Laerm;58450;52.150;4.466;2022-07-24T09:54:46;52.35;44.99;67.51;;
66274;Laerm;58450;52.150;4.466;2022-07-24T09:57:23;51.32;44.07;64.18;;
66274;Laerm;58450;52.150;4.466;2022-07-24T09:59:54;54.82;49.53;69.16;;
66274;Laerm;58450;52.150;4.466;2022-07-24T10:02:26;53.13;49.14;66.70;;
66274;Laerm;58450;52.150;4.466;2022-07-24T10:04:55;52.85;44.90;62.94;;
66274;Laerm;58450;52.150;4.466;2022-07-24T10:07:25;49.86;44.18;64.54;;
66274;Laerm;58450;52.150;4.466;2022-07-24T10:09:58;57.21;47.96;75.18;;
66274;Laerm;58450;52.150;4.466;2022-07-24T10:12:28;55.28;49.79;62.96;;
66274;Laerm;58450;52.150;4.466;2022-07-24T10:14:59;54.52;49.67;68.48;;
66274;Laerm;58450;52.150;4.466;2022-07-24T10:20:38;54.54;48.18;73.38;;
66274;Laerm;58450;52.150;4.466;2022-07-24T10:23:07;52.77;46.90;67.56;;
66274;Laerm;58450;52.150;4.466;2022-07-24T10:25:54;51.69;44.76;74.59;;
66274;Laerm;58450;52.150;4.466;2022-07-24T10:28:41;55.84;47.72;62.92;;
66274;Laerm;58450;52.150;4.466;2022-07-24T10:31:11;54.54;49.84;68.12;;
66274;Laerm;58450;52.150;4.466;2022-07-24T10:33:42;54.29;48.47;66.92;;
66274;Laerm;58450;52.150;4.466;2022-07-24T10:36:20;53.42;47.70;68.91;;
66274;Laerm;58450;52.150;4.466;2022-07-24T10:38:57;53.78;48.88;66.85;;
66274;Laerm;58450;52.150;4.466;2022-07-24T10:41:28;52.78;45.81;70.29;;
66274;Laerm;58450;52.150;4.466;2022-07-24T10:44:15;54.53;46.93;66.75;;
66274;Laerm;58450;52.150;4.466;2022-07-24T10:47:08;57.22;50.15;68.94;;
66274;Laerm;58450;52.150;4.466;2022-07-24T10:49:47;56.27;49.78;77.48;;
66274;Laerm;58450;52.150;4.466;2022-07-24T10:52:25;57.22;51.66;70.55;;
66274;Laerm;58450;52.150;4.466;2022-07-24T10:55:28;55.39;50.50;65.64;;
66274;Laerm;58450;52.150;4.466;2022-07-24T10:58:00;55.60;49.20;76.85;;
66274;Laerm;58450;52.150;4.466;2022-07-24T11:00:32;54.92;49.85;68.17;;
66274;Laerm;58450;52.150;4.466;2022-07-24T11:03:04;54.69;50.16;67.19;;
66274;Laerm;58450;52.150;4.466;2022-07-24T11:05:34;54.92;50.51;67.46;;
66274;Laerm;58450;52.150;4.466;2022-07-24T11:08:29;55.99;49.10;76.15;;
66274;Laerm;58450;52.150;4.466;2022-07-24T11:11:04;57.30;50.87;79.27;;
66274;Laerm;58450;52.150;4.466;2022-07-24T11:13:53;55.12;47.96;68.56;;
66274;Laerm;58450;52.150;4.466;2022-07-24T11:16:34;56.27;48.69;72.69;;
66274;Laerm;58450;52.150;4.466;2022-07-24T11:19:27;56.54;50.77;62.21;;
66274;Laerm;58450;52.150;4.466;2022-07-24T11:22:37;55.94;49.70;62.22;;
66274;Laerm;58450;52.150;4.466;2022-07-24T11:25:12;54.03;46.55;75.85;;
66274;Laerm;58450;52.150;4.466;2022-07-24T11:27:56;56.35;50.55;75.01;;
66274;Laerm;58450;52.150;4.466;2022-07-24T11:30:28;55.85;51.15;63.74;;
66274;Laerm;58450;52.150;4.466;2022-07-24T11:32:56;55.65;49.77;63.71;;
66274;Laerm;58450;52.150;4.466;2022-07-24T11:35:33;56.11;49.54;66.85;;
66274;Laerm;58450;52.150;4.466;2022-07-24T11:38:03;54.91;48.09;71.03;;
66274;Laerm;58450;52.150;4.466;2022-07-24T11:40:32;55.61;49.90;68.11;;
66274;Laerm;58450;52.150;4.466;2022-07-24T11:43:03;54.94;48.95;63.22;;
66274;Laerm;58450;52.150;4.466;2022-07-24T11:45:32;55.81;51.14;70.70;;
66274;Laerm;58450;52.150;4.466;2022-07-24T11:47:59;56.27;51.19;64.02;;
66274;Laerm;58450;52.150;4.466;2022-07-24T11:50:28;56.05;51.26;63.98;;
66274;Laerm;58450;52.150;4.466;2022-07-24T11:52:58;54.84;49.92;62.58;;
66274;Laerm;58450;52.150;4.466;2022-07-24T11:55:26;55.82;49.98;66.08;;
66274;Laerm;58450;52.150;4.466;2022-07-24T11:57:56;56.46;50.59;67.37;;
66274;Laerm;58450;52.150;4.466;2022-07-24T12:00:26;55.97;50.41;66.28;;
66274;Laerm;58450;52.150;4.466;2022-07-24T12:02:59;55.32;49.35;64.57;;
66274;Laerm;58450;52.150;4.466;2022-07-24T12:05:30;54.45;48.70;66.44;;
66274;Laerm;58450;52.150;4.466;2022-07-24T12:08:00;54.08;49.01;60.71;;
66274;Laerm;58450;52.150;4.466;2022-07-24T12:10:29;51.72;46.76;57.44;;
66274;Laerm;58450;52.150;4.466;2022-07-24T12:12:57;55.12;47.82;66.68;;
66274;Laerm;58450;52.150;4.466;2022-07-24T12:15:26;54.15;49.39;63.57;;
66274;Laerm;58450;52.150;4.466;2022-07-24T12:17:58;54.55;49.96;62.54;;
66274;Laerm;58450;52.150;4.466;2022-07-24T12:20:28;54.57;50.36;62.31;;
66274;Laerm;58450;52.150;4.466;2022-07-24T12:22:58;54.07;48.97;71.87;;
66274;Laerm;58450;52.150;4.466;2022-07-24T12:25:26;52.08;45.65;73.47;;
66274;Laerm;58450;52.150;4.466;2022-07-24T12:28:04;54.98;49.23;64.57;;
66274;Laerm;58450;52.150;4.466;2022-07-24T12:30:34;53.01;47.06;71.97;;
66274;Laerm;58450;52.150;4.466;2022-07-24T12:33:05;52.02;47.96;58.87;;
66274;Laerm;58450;52.150;4.466;2022-07-24T12:35:52;52.08;45.49;62.55;;
66274;Laerm;58450;52.150;4.466;2022-07-24T12:38:27;56.23;49.88;65.46;;
66274;Laerm;58450;52.150;4.466;2022-07-24T12:41:03;55.23;50.05;64.44;;
66274;Laerm;58450;52.150;4.466;2022-07-24T12:43:32;54.58;48.20;69.25;;
66274;Laerm;58450;52.150;4.466;2022-07-24T12:46:07;55.35;49.33;73.48;;
66274;Laerm;58450;52.150;4.466;2022-07-24T12:48:37;55.95;49.29;62.28;;
66274;Laerm;58450;52.150;4.466;2022-07-24T12:51:08;52.75;47.28;59.33;;
66274;Laerm;58450;52.150;4.466;2022-07-24T12:53:39;54.15;46.34;65.29;;
66274;Laerm;58450;52.150;4.466;2022-07-24T12:56:15;52.28;46.54;66.78;;
66274;Laerm;58450;52.150;4.466;2022-07-24T12:58:58;52.32;45.99;59.77;;
66274;Laerm;58450;52.150;4.466;2022-07-24T13:01:29;50.90;44.55;64.27;;
66274;Laerm;58450;52.150;4.466;2022-07-24T13:04:11;54.77;50.20;61.38;;
66274;Laerm;58450;52.150;4.466;2022-07-24T13:06:41;54.09;48.85;61.09;;
66274;Laerm;58450;52.150;4.466;2022-07-24T13:09:11;54.16;47.59;60.17;;
66274;Laerm;58450;52.150;4.466;2022-07-24T13:11:41;53.31;46.78;63.03;;
66274;Laerm;58450;52.150;4.466;2022-07-24T13:14:11;55.65;47.88;64.38;;
66274;Laerm;58450;52.150;4.466;2022-07-24T13:16:41;56.00;50.37;68.24;;
66274;Laerm;58450;52.150;4.466;2022-07-24T13:19:11;54.56;47.73;61.66;;
66274;Laerm;58450;52.150;4.466;2022-07-24T13:21:39;56.84;51.55;68.69;;
66274;Laerm;58450;52.150;4.466;2022-07-24T13:24:09;55.85;51.31;61.26;;
66274;Laerm;58450;52.150;4.466;2022-07-24T13:26:39;53.26;47.75;65.17;;
66274;Laerm;58450;52.150;4.466;2022-07-24T13:29:07;53.17;47.24;60.00;;
66274;Laerm;58450;52.150;4.466;2022-07-24T13:31:35;54.04;47.47;61.22;;
66274;Laerm;58450;52.150;4.466;2022-07-24T13:34:03;54.61;48.31;74.43;;
66274;Laerm;58450;52.150;4.466;2022-07-24T13:36:34;54.70;48.17;67.63;;
66274;Laerm;58450;52.150;4.466;2022-07-24T13:39:03;54.51;48.35;62.86;;
66274;Laerm;58450;52.150;4.466;2022-07-24T13:41:30;53.07;46.01;59.12;;
66274;Laerm;58450;52.150;4.466;2022-07-24T13:43:58;55.36;49.55;63.66;;
66274;Laerm;58450;52.150;4.466;2022-07-24T13:46:25;52.80;47.31;58.82;;
66274;Laerm;58450;52.150;4.466;2022-07-24T13:48:53;54.77;48.40;75.93;;
66274;Laerm;58450;52.150;4.466;2022-07-24T13:51:21;52.92;46.49;67.03;;
66274;Laerm;58450;52.150;4.466;2022-07-24T13:53:50;56.00;48.90;63.86;;
66274;Laerm;58450;52.150;4.466;2022-07-24T13:56:17;55.41;48.04;65.61;;
66274;Laerm;58450;52.150;4.466;2022-07-24T13:58:45;53.12;45.92;65.08;;
66274;Laerm;58450;52.150;4.466;2022-07-24T14:01:12;52.40;45.87;63.31;;